SHT22T EGLL-EGJB
Flight info
| Callsign | SHT22T |
|---|---|
| Flight time | 0h 37m |
| Altitude | 18000 |
| Route | GASGU2J GASGU N866 SAM N63 LELNA LELNA1V |
| Aircraft | A21N/M-SDE3FGIJ1LRWXYZ/SB1G1 |
Departure
| Time | 2026-04-22 14:20 |
|---|---|
| Airport | London Heathrow Airport (EGLL) |
Arrival
| Time | 2026-04-22 14:57 |
|---|---|
| Airport | Guernsey Airport (EGJB) |
| Time | Latitude | Longitude | Altitude | Speed | Heading |
|---|---|---|---|---|---|
| 2026-04-22 14:04 | 51.47270 | -0.48581 | 92 ft | 0 kts | 270° |
| 2026-04-22 14:10 | 51.47270 | -0.48557 | 94 ft | 4 kts | 270° |
| 2026-04-22 14:10 | 51.47271 | -0.48523 | 92 ft | 4 kts | 265° |
| 2026-04-22 14:10 | 51.47278 | -0.48486 | 92 ft | 4 kts | 222° |
| 2026-04-22 14:11 | 51.47298 | -0.48476 | 92 ft | 4 kts | 180° |
| 2026-04-22 14:11 | 51.47304 | -0.48476 | 92 ft | 0 kts | 180° |
| 2026-04-22 14:15 | 51.47294 | -0.48476 | 92 ft | 3 kts | 180° |
| 2026-04-22 14:16 | 51.47264 | -0.48476 | 93 ft | 6 kts | 180° |
| 2026-04-22 14:16 | 51.47212 | -0.48475 | 92 ft | 9 kts | 179° |
| 2026-04-22 14:16 | 51.47144 | -0.48475 | 92 ft | 11 kts | 180° |
| 2026-04-22 14:16 | 51.47057 | -0.48474 | 92 ft | 14 kts | 179° |
| 2026-04-22 14:17 | 51.46952 | -0.48473 | 92 ft | 13 kts | 179° |
| 2026-04-22 14:17 | 51.46855 | -0.48471 | 92 ft | 15 kts | 179° |
| 2026-04-22 14:17 | 51.46743 | -0.48471 | 92 ft | 12 kts | 180° |
| 2026-04-22 14:17 | 51.46659 | -0.48470 | 92 ft | 8 kts | 180° |
| 2026-04-22 14:18 | 51.46591 | -0.48470 | 93 ft | 12 kts | 180° |
| 2026-04-22 14:18 | 51.46511 | -0.48469 | 94 ft | 8 kts | 179° |
| 2026-04-22 14:18 | 51.46480 | -0.48406 | 94 ft | 8 kts | 88° |
| 2026-04-22 14:18 | 51.46478 | -0.48365 | 94 ft | 1 kts | 90° |
| 2026-04-22 14:19 | 51.46478 | -0.48354 | 94 ft | 0 kts | 90° |
| 2026-04-22 14:19 | 51.46478 | -0.48108 | 93 ft | 60 kts | 90° |
| 2026-04-22 14:19 | 51.46482 | -0.47043 | 93 ft | 128 kts | 89° |
| 2026-04-22 14:19 | 51.46489 | -0.45414 | 457 ft | 147 kts | 91° |
| 2026-04-22 14:20 | 51.46526 | -0.42046 | 1929 ft | 165 kts | 89° |
| 2026-04-22 14:20 | 51.46337 | -0.40052 | 2439 ft | 201 kts | 107° |
| 2026-04-22 14:20 | 51.45518 | -0.38033 | 3142 ft | 234 kts | 132° |
| 2026-04-22 14:21 | 51.43155 | -0.34274 | 5441 ft | 243 kts | 128° |
| 2026-04-22 14:21 | 51.41850 | -0.32507 | 6594 ft | 251 kts | 146° |
| 2026-04-22 14:22 | 51.38345 | -0.31518 | 8819 ft | 272 kts | 185° |
| 2026-04-22 14:22 | 51.36536 | -0.32531 | 9975 ft | 285 kts | 206° |
| 2026-04-22 14:22 | 51.33984 | -0.37870 | 11416 ft | 338 kts | 249° |
| 2026-04-22 14:23 | 51.33499 | -0.41649 | 12060 ft | 358 kts | 259° |
| 2026-04-22 14:23 | 51.33171 | -0.45665 | 12993 ft | 366 kts | 261° |
| 2026-04-22 14:23 | 51.32863 | -0.49721 | 14050 ft | 370 kts | 261° |
| 2026-04-22 14:23 | 51.32548 | -0.53821 | 14980 ft | 374 kts | 261° |
| 2026-04-22 14:24 | 51.32220 | -0.57970 | 15859 ft | 378 kts | 261° |
| 2026-04-22 14:24 | 51.31872 | -0.62175 | 16656 ft | 383 kts | 261° |
| 2026-04-22 14:24 | 51.31501 | -0.66400 | 17156 ft | 384 kts | 261° |
| 2026-04-22 14:24 | 51.31110 | -0.70641 | 17823 ft | 387 kts | 261° |
| 2026-04-22 14:25 | 51.30700 | -0.74903 | 18227 ft | 388 kts | 261° |
| 2026-04-22 14:25 | 51.30281 | -0.79113 | 18321 ft | 375 kts | 261° |
| 2026-04-22 14:25 | 51.29865 | -0.83206 | 18336 ft | 372 kts | 261° |
| 2026-04-22 14:25 | 51.29447 | -0.87283 | 18329 ft | 372 kts | 261° |
| 2026-04-22 14:26 | 51.28870 | -0.91304 | 18312 ft | 371 kts | 250° |
| 2026-04-22 14:26 | 51.27713 | -0.94968 | 18302 ft | 371 kts | 235° |
| 2026-04-22 14:26 | 51.26025 | -0.98011 | 18314 ft | 370 kts | 220° |
| 2026-04-22 14:26 | 51.23968 | -1.00571 | 18324 ft | 369 kts | 216° |
| 2026-04-22 14:27 | 51.21932 | -1.02952 | 18311 ft | 367 kts | 216° |
| 2026-04-22 14:27 | 51.19876 | -1.05377 | 18317 ft | 367 kts | 216° |
| 2026-04-22 14:27 | 51.17827 | -1.07821 | 18303 ft | 367 kts | 217° |
| 2026-04-22 14:27 | 51.15785 | -1.10267 | 18322 ft | 367 kts | 217° |
| 2026-04-22 14:28 | 51.13748 | -1.12713 | 18307 ft | 367 kts | 217° |
| 2026-04-22 14:28 | 51.11710 | -1.15161 | 18311 ft | 367 kts | 217° |
| 2026-04-22 14:28 | 51.09673 | -1.17608 | 18291 ft | 367 kts | 217° |
| 2026-04-22 14:28 | 51.07639 | -1.20048 | 18297 ft | 367 kts | 217° |
| 2026-04-22 14:29 | 51.05589 | -1.22501 | 18289 ft | 367 kts | 217° |
| 2026-04-22 14:29 | 51.03554 | -1.24937 | 18287 ft | 367 kts | 217° |
| 2026-04-22 14:29 | 51.01516 | -1.27375 | 18292 ft | 366 kts | 217° |
| 2026-04-22 14:29 | 50.99475 | -1.29810 | 18284 ft | 366 kts | 217° |
| 2026-04-22 14:30 | 50.97441 | -1.32236 | 18290 ft | 366 kts | 217° |
| 2026-04-22 14:30 | 50.95369 | -1.34578 | 18272 ft | 366 kts | 211° |
| 2026-04-22 14:30 | 50.93131 | -1.36494 | 18285 ft | 366 kts | 207° |
| 2026-04-22 14:30 | 50.90852 | -1.38295 | 18283 ft | 366 kts | 206° |
| 2026-04-22 14:31 | 50.88571 | -1.40092 | 18291 ft | 366 kts | 206° |
| 2026-04-22 14:31 | 50.86297 | -1.41897 | 18284 ft | 366 kts | 207° |
| 2026-04-22 14:31 | 50.84024 | -1.43703 | 18288 ft | 366 kts | 207° |
| 2026-04-22 14:31 | 50.81744 | -1.45513 | 18282 ft | 366 kts | 207° |
| 2026-04-22 14:32 | 50.79500 | -1.47301 | 18290 ft | 366 kts | 207° |
| 2026-04-22 14:32 | 50.77225 | -1.49113 | 18289 ft | 366 kts | 207° |
| 2026-04-22 14:32 | 50.74943 | -1.50926 | 18283 ft | 367 kts | 207° |
| 2026-04-22 14:32 | 50.72665 | -1.52731 | 18294 ft | 367 kts | 207° |
| 2026-04-22 14:33 | 50.70387 | -1.54536 | 18292 ft | 367 kts | 207° |
| 2026-04-22 14:33 | 50.68105 | -1.56339 | 18280 ft | 367 kts | 207° |
| 2026-04-22 14:33 | 50.65823 | -1.58144 | 18290 ft | 366 kts | 207° |
| 2026-04-22 14:33 | 50.63543 | -1.59947 | 18275 ft | 366 kts | 207° |
| 2026-04-22 14:34 | 50.61268 | -1.61741 | 18276 ft | 366 kts | 207° |
| 2026-04-22 14:34 | 50.58983 | -1.63531 | 18283 ft | 366 kts | 206° |
| 2026-04-22 14:34 | 50.56729 | -1.65296 | 18278 ft | 365 kts | 207° |
| 2026-04-22 14:34 | 50.54456 | -1.67089 | 18275 ft | 365 kts | 207° |
| 2026-04-22 14:35 | 50.52187 | -1.68874 | 18281 ft | 364 kts | 207° |
| 2026-04-22 14:35 | 50.49920 | -1.70655 | 18277 ft | 364 kts | 206° |
| 2026-04-22 14:35 | 50.47657 | -1.72431 | 18280 ft | 364 kts | 206° |
| 2026-04-22 14:35 | 50.45388 | -1.74207 | 18282 ft | 364 kts | 206° |
| 2026-04-22 14:36 | 50.43126 | -1.75974 | 18265 ft | 363 kts | 206° |
| 2026-04-22 14:36 | 50.40865 | -1.77738 | 18269 ft | 363 kts | 206° |
| 2026-04-22 14:36 | 50.38603 | -1.79503 | 18264 ft | 363 kts | 206° |
| 2026-04-22 14:36 | 50.36342 | -1.81266 | 18272 ft | 362 kts | 206° |
| 2026-04-22 14:37 | 50.34083 | -1.83024 | 18262 ft | 362 kts | 206° |
| 2026-04-22 14:37 | 50.31829 | -1.84778 | 18264 ft | 362 kts | 206° |
| 2026-04-22 14:37 | 50.29572 | -1.86528 | 18271 ft | 362 kts | 206° |
| 2026-04-22 14:37 | 50.27314 | -1.88280 | 18263 ft | 361 kts | 206° |
| 2026-04-22 14:38 | 50.25086 | -1.90007 | 18261 ft | 361 kts | 206° |
| 2026-04-22 14:38 | 50.22833 | -1.91749 | 18280 ft | 361 kts | 206° |
| 2026-04-22 14:38 | 50.20588 | -1.93488 | 18256 ft | 360 kts | 206° |
| 2026-04-22 14:38 | 50.18335 | -1.95229 | 18247 ft | 360 kts | 206° |
| 2026-04-22 14:39 | 50.16093 | -1.96960 | 18262 ft | 359 kts | 206° |
| 2026-04-22 14:39 | 50.13857 | -1.98685 | 18250 ft | 359 kts | 206° |
| 2026-04-22 14:39 | 50.11617 | -2.00409 | 18247 ft | 359 kts | 206° |
| 2026-04-22 14:40 | 50.07897 | -2.03271 | 18248 ft | 358 kts | 206° |
| 2026-04-22 14:40 | 50.04922 | -2.05552 | 18125 ft | 351 kts | 206° |
| 2026-04-22 14:40 | 50.02713 | -2.07245 | 17883 ft | 354 kts | 206° |
| 2026-04-22 14:40 | 50.00505 | -2.08936 | 17629 ft | 353 kts | 206° |
| 2026-04-22 14:41 | 49.98391 | -2.10846 | 17362 ft | 352 kts | 216° |
| 2026-04-22 14:41 | 49.96619 | -2.13380 | 17105 ft | 351 kts | 227° |
| 2026-04-22 14:41 | 49.94982 | -2.16251 | 16848 ft | 349 kts | 228° |
| 2026-04-22 14:41 | 49.93409 | -2.19059 | 16592 ft | 348 kts | 228° |
| 2026-04-22 14:42 | 49.91819 | -2.21875 | 16333 ft | 347 kts | 228° |
| 2026-04-22 14:42 | 49.90226 | -2.24674 | 16040 ft | 345 kts | 227° |
| 2026-04-22 14:42 | 49.88633 | -2.27465 | 15695 ft | 343 kts | 227° |
| 2026-04-22 14:42 | 49.87051 | -2.30223 | 15310 ft | 342 kts | 227° |
| 2026-04-22 14:43 | 49.85470 | -2.32972 | 14913 ft | 342 kts | 227° |
| 2026-04-22 14:43 | 49.83888 | -2.35723 | 14516 ft | 341 kts | 227° |
| 2026-04-22 14:43 | 49.82313 | -2.38463 | 14129 ft | 341 kts | 227° |
| 2026-04-22 14:43 | 49.80734 | -2.41204 | 13697 ft | 341 kts | 227° |
| 2026-04-22 14:44 | 49.79162 | -2.43932 | 13259 ft | 340 kts | 227° |
| 2026-04-22 14:44 | 49.77585 | -2.46661 | 12867 ft | 339 kts | 227° |
| 2026-04-22 14:44 | 49.76014 | -2.49373 | 12489 ft | 337 kts | 226° |
| 2026-04-22 14:44 | 49.74451 | -2.52073 | 12102 ft | 336 kts | 226° |
| 2026-04-22 14:45 | 49.72891 | -2.54768 | 11719 ft | 336 kts | 226° |
| 2026-04-22 14:45 | 49.71254 | -2.57337 | 11320 ft | 334 kts | 223° |
| 2026-04-22 14:45 | 49.70233 | -2.59092 | 11018 ft | 332 kts | 228° |
| 2026-04-22 14:45 | 49.68350 | -2.62753 | 10559 ft | 322 kts | 230° |
| 2026-04-22 14:46 | 49.67010 | -2.65449 | 10373 ft | 311 kts | 230° |
| 2026-04-22 14:46 | 49.65728 | -2.68054 | 10215 ft | 300 kts | 230° |
| 2026-04-22 14:46 | 49.64881 | -2.69774 | 10026 ft | 295 kts | 230° |
| 2026-04-22 14:46 | 49.63645 | -2.72282 | 9622 ft | 293 kts | 230° |
| 2026-04-22 14:47 | 49.62024 | -2.75606 | 9049 ft | 292 kts | 230° |
| 2026-04-22 14:47 | 49.60819 | -2.78108 | 8623 ft | 291 kts | 230° |
| 2026-04-22 14:47 | 49.59624 | -2.80622 | 8211 ft | 290 kts | 230° |
| 2026-04-22 14:47 | 49.58841 | -2.82294 | 7937 ft | 290 kts | 230° |
| 2026-04-22 14:48 | 49.57670 | -2.84814 | 7549 ft | 289 kts | 230° |
| 2026-04-22 14:48 | 49.56506 | -2.87327 | 7170 ft | 287 kts | 230° |
| 2026-04-22 14:48 | 49.55356 | -2.89825 | 6885 ft | 282 kts | 230° |
| 2026-04-22 14:48 | 49.54242 | -2.92257 | 6723 ft | 273 kts | 230° |
| 2026-04-22 14:49 | 49.53175 | -2.94605 | 6581 ft | 263 kts | 230° |
| 2026-04-22 14:49 | 49.52157 | -2.96872 | 6448 ft | 252 kts | 230° |
| 2026-04-22 14:49 | 49.51190 | -2.99052 | 6232 ft | 242 kts | 230° |
| 2026-04-22 14:49 | 49.50263 | -3.01166 | 6016 ft | 234 kts | 227° |
| 2026-04-22 14:50 | 49.49084 | -3.02721 | 5726 ft | 217 kts | 198° |
| 2026-04-22 14:50 | 49.47685 | -3.03070 | 5507 ft | 196 kts | 166° |
| 2026-04-22 14:50 | 49.46534 | -3.02224 | 5346 ft | 179 kts | 133° |
| 2026-04-22 14:50 | 49.45852 | -3.00680 | 5213 ft | 174 kts | 121° |
| 2026-04-22 14:51 | 49.45279 | -2.99037 | 5079 ft | 174 kts | 120° |
| 2026-04-22 14:51 | 49.44719 | -2.97389 | 4958 ft | 174 kts | 120° |
| 2026-04-22 14:51 | 49.44166 | -2.95741 | 4817 ft | 174 kts | 120° |
| 2026-04-22 14:51 | 49.43611 | -2.94099 | 4632 ft | 172 kts | 120° |
| 2026-04-22 14:52 | 49.43052 | -2.92478 | 4399 ft | 171 kts | 120° |
| 2026-04-22 14:52 | 49.42696 | -2.90745 | 4153 ft | 172 kts | 100° |
| 2026-04-22 14:52 | 49.42676 | -2.88905 | 3921 ft | 173 kts | 90° |
| 2026-04-22 14:52 | 49.42747 | -2.87077 | 3685 ft | 170 kts | 92° |
| 2026-04-22 14:53 | 49.42800 | -2.85270 | 3461 ft | 169 kts | 92° |
| 2026-04-22 14:53 | 49.42850 | -2.83476 | 3228 ft | 168 kts | 92° |
| 2026-04-22 14:53 | 49.42899 | -2.81711 | 2997 ft | 167 kts | 91° |
| 2026-04-22 14:53 | 49.42948 | -2.79943 | 2770 ft | 164 kts | 91° |
| 2026-04-22 14:54 | 49.42997 | -2.78201 | 2545 ft | 162 kts | 91° |
| 2026-04-22 14:54 | 49.43044 | -2.76473 | 2328 ft | 160 kts | 90° |
| 2026-04-22 14:54 | 49.43091 | -2.74819 | 2150 ft | 149 kts | 90° |
| 2026-04-22 14:54 | 49.43133 | -2.73284 | 1952 ft | 137 kts | 90° |
| 2026-04-22 14:55 | 49.43172 | -2.71897 | 1769 ft | 123 kts | 90° |
| 2026-04-22 14:55 | 49.43204 | -2.70722 | 1599 ft | 103 kts | 89° |
| 2026-04-22 14:55 | 49.43234 | -2.69627 | 1443 ft | 103 kts | 88° |
| 2026-04-22 14:55 | 49.43265 | -2.68522 | 1301 ft | 104 kts | 87° |
| 2026-04-22 14:56 | 49.43296 | -2.67406 | 1139 ft | 105 kts | 87° |
| 2026-04-22 14:56 | 49.43327 | -2.66270 | 1017 ft | 107 kts | 86° |
| 2026-04-22 14:56 | 49.43358 | -2.65146 | 865 ft | 106 kts | 87° |
| 2026-04-22 14:56 | 49.43391 | -2.63988 | 670 ft | 109 kts | 86° |
| 2026-04-22 14:57 | 49.43421 | -2.62838 | 545 ft | 108 kts | 84° |
| 2026-04-22 14:57 | 49.43457 | -2.61678 | 396 ft | 110 kts | 85° |
| 2026-04-22 14:57 | 49.43487 | -2.60574 | 335 ft | 78 kts | 87° |
| 2026-04-22 14:57 | 49.43498 | -2.60176 | 353 ft | 15 kts | 87° |
| 2026-04-22 14:58 | 49.43503 | -2.59991 | 348 ft | 19 kts | 88° |
| 2026-04-22 14:58 | 49.43503 | -2.59863 | 354 ft | 11 kts | 92° |
| 2026-04-22 14:58 | 49.43505 | -2.59729 | 351 ft | 14 kts | 86° |
| 2026-04-22 14:58 | 49.43512 | -2.59564 | 355 ft | 17 kts | 86° |
| 2026-04-22 14:59 | 49.43518 | -2.59366 | 354 ft | 20 kts | 87° |
| 2026-04-22 14:59 | 49.43517 | -2.59228 | 353 ft | 10 kts | 117° |
| 2026-04-22 14:59 | 49.43462 | -2.59195 | 350 ft | 7 kts | 181° |
| 2026-04-22 14:59 | 49.43411 | -2.59201 | 354 ft | 7 kts | 195° |
| 2026-04-22 15:00 | 49.43375 | -2.59261 | 353 ft | 5 kts | 255° |
| 2026-04-22 15:00 | 49.43371 | -2.59333 | 350 ft | 8 kts | 266° |
| 2026-04-22 15:00 | 49.43368 | -2.59438 | 359 ft | 11 kts | 268° |
| 2026-04-22 15:00 | 49.43365 | -2.59536 | 357 ft | 7 kts | 268° |
| 2026-04-22 15:01 | 49.43363 | -2.59630 | 350 ft | 9 kts | 267° |
| 2026-04-22 15:01 | 49.43352 | -2.59685 | 354 ft | 7 kts | 220° |
| 2026-04-22 15:01 | 49.43310 | -2.59690 | 350 ft | 0 kts | 178° |
| 2026-04-22 15:01 | 49.43296 | -2.59690 | 350 ft | 4 kts | 179° |
| 2026-04-22 15:02 | 49.43274 | -2.59689 | 350 ft | 2 kts | 178° |
| 2026-04-22 15:02 | 49.43266 | -2.59688 | 350 ft | 0 kts | 178° |